Airfield :
LOGIN :

Register | Disclaimer

   EN    FR    IT 

 










Legend :    VFR   Marginal VFR   IFR   Intensive IFR   Very Intensive IFR
Visi :
Ceiling :
>= 8 km
>= 3000ft
5 to 8 km
1000 to 3000 ft
1500m to 5 km
500 to 1000 ft
800 to 1500m
200 to 500 ft
< 800m
< 200 ft
Symbols :   Thunderstorms  Fog  Heavy snow  Heavy precipitations  Wind > 20 kt
SIGMETs :     Misc.  Thunderstorms  Icing  Turbulence  Mountain Waves  Volcanic Ashes







- Airport Elevation : 587 ft
- IATA code : XCR
- Download approach charts


LFOK - Chalons Vatry

CURRENT METAR :
  • 131600Z AUTO 07013KT 9999 OVC026 01/M02 Q1014 NOSIG

EXPIRED METARs :
  • 131530Z AUTO 07014KT 9999 SCT024 01/M02 Q1014 NOSIG
  • 131500Z AUTO 08017KT 9999 FEW023 01/M02 Q1014 NOSIG
  • 131430Z AUTO 07017KT CAVOK 01/M02 Q1013 NOSIG
  • 131400Z AUTO 08017KT 9999 FEW021 02/M02 Q1013 NOSIG
  • 131330Z AUTO 08014KT 9999 FEW020 02/M01 Q1013 NOSIG

TAF TAF LFOK
Valid from the 13 at 12:00 until the 14 at 12:00 UTC


131100Z 1312/1412 07018KT 9999 SCT025
BECMG 1318/1321 03008KT
PROB30 1403/1412 BKN010
No reported NOTAMs for that airfield.



MET'MAP, your aeronautical weather chart ! - Copyright ORBIFLY December 2007 - Disclaimer

ORBIFLY MET'MAP TEAM :

Programming & Development : Alexandra Zaïnal
Concept & Development : Baudouin d'Aumeries
Co-Development & Prog : Marc-Olivier Méhu
Technical & hardware support : Manuel Goepfert

Contact : metmap@orbifly.com




SOURCES & CREDITS :

   NOAA